Time;durP1;ratioP1;P1;durP2;ratioP2;P2;SDS_P1;SDS_P2;PMS_P1;PMS_P2;Temp;Humidity;BMP_temperature;BMP_pressure;BME280_temperature;BME280_humidity;BME280_pressure;Samples;Min_cycle;Max_cycle;Signal;HPM_P1;HPM_P2
2021/08/03 00:01:23;;;;;;;7.55;1.92;;;12.40;99.90;;;;;;3568096;40;20517;-67
2021/08/03 00:03:49;;;;;;;9.63;2.28;;;12.40;99.90;;;;;;3561676;40;20030;-67
2021/08/03 00:06:14;;;;;;;2.63;1.90;;;12.40;99.90;;;;;;3561152;40;20084;-60
2021/08/03 00:08:40;;;;;;;4.95;2.40;;;12.30;99.90;;;;;;3562294;40;20045;-59
2021/08/03 00:11:05;;;;;;;5.85;2.42;;;12.30;99.90;;;;;;3568326;40;20029;-59
2021/08/03 00:13:31;;;;;;;3.80;1.80;;;12.30;99.90;;;;;;3561365;40;20026;-59
2021/08/03 00:15:56;;;;;;;3.58;2.25;;;12.30;99.90;;;;;;3562038;40;20024;-60
2021/08/03 00:18:22;;;;;;;5.80;2.33;;;12.30;99.90;;;;;;3561079;40;20036;-59
2021/08/03 00:20:47;;;;;;;3.58;1.88;;;12.30;99.90;;;;;;3561224;40;20041;-60
2021/08/03 00:23:13;;;;;;;3.63;1.85;;;12.30;99.90;;;;;;3562019;40;20700;-60
2021/08/03 00:25:38;;;;;;;6.78;2.10;;;12.30;99.90;;;;;;3560779;40;20037;-60
2021/08/03 00:28:04;;;;;;;2.80;1.75;;;12.30;99.90;;;;;;3561579;40;20426;-59
2021/08/03 00:30:30;;;;;;;4.55;2.03;;;12.20;99.90;;;;;;3561155;40;20276;-59
2021/08/03 00:32:55;;;;;;;5.70;2.10;;;12.20;99.90;;;;;;3561983;40;20045;-59
2021/08/03 00:35:21;;;;;;;4.63;2.03;;;12.10;99.90;;;;;;3568439;40;20049;-66
2021/08/03 00:37:48;;;;;;;5.45;2.03;;;12.10;99.90;;;;;;3568584;40;20488;-67
2021/08/03 00:40:13;;;;;;;11.45;2.50;;;12.20;99.90;;;;;;3568007;40;20033;-68
2021/08/03 00:42:39;;;;;;;5.65;2.50;;;12.10;99.90;;;;;;3560002;40;20751;-67
2021/08/03 00:45:05;;;;;;;10.85;2.47;;;12.00;99.90;;;;;;3561458;40;20561;-68
2021/08/03 00:47:36;;;;;;;5.20;2.20;;;12.00;99.90;;;;;;3560705;40;20038;-67
2021/08/03 00:50:07;;;;;;;6.50;2.25;;;12.00;99.90;;;;;;3560294;40;20030;-67
2021/08/03 00:52:35;;;;;;;3.70;2.13;;;11.90;99.90;;;;;;3568831;40;20088;-67
2021/08/03 00:55:01;;;;;;;8.05;2.20;;;11.90;99.90;;;;;;3561370;40;20114;-68
2021/08/03 00:57:27;;;;;;;5.85;2.28;;;11.90;99.90;;;;;;3561418;40;20042;-67
2021/08/03 00:59:52;;;;;;;3.63;2.53;;;12.00;99.90;;;;;;3560713;40;20095;-67
2021/08/03 01:02:22;;;;;;;5.53;2.30;;;12.10;99.90;;;;;;3560522;40;20034;-66
2021/08/03 01:04:50;;;;;;;5.60;2.42;;;12.00;99.90;;;;;;3560976;40;20033;-65
2021/08/03 01:07:17;;;;;;;2.83;2.28;;;12.10;99.90;;;;;;3567833;40;20160;-66
2021/08/03 01:09:44;;;;;;;3.53;2.22;;;12.30;99.90;;;;;;3567227;40;20049;-66
2021/08/03 01:12:10;;;;;;;3.72;2.00;;;12.20;99.90;;;;;;3559463;40;20045;-65
2021/08/03 01:14:38;;;;;;;5.25;1.98;;;12.20;99.90;;;;;;3561761;40;20279;-66
2021/08/03 01:17:06;;;;;;;5.60;2.45;;;12.30;99.90;;;;;;3561701;40;20034;-66
2021/08/03 01:19:32;;;;;;;6.32;2.03;;;12.30;99.90;;;;;;3561038;40;20025;-66
2021/08/03 01:22:04;;;;;;;6.25;2.20;;;12.30;99.90;;;;;;3568575;40;20029;-66
2021/08/03 01:24:32;;;;;;;7.00;2.22;;;12.30;99.90;;;;;;3567405;40;20041;-65
2021/08/03 01:26:57;;;;;;;6.13;1.98;;;12.30;99.90;;;;;;3567609;40;20295;-66
2021/08/03 01:29:23;;;;;;;3.38;1.88;;;12.30;99.90;;;;;;3560510;40;20053;-66
2021/08/03 01:31:50;;;;;;;4.25;2.13;;;12.30;99.90;;;;;;3559445;40;20033;-66
2021/08/03 01:34:16;;;;;;;4.53;1.95;;;12.30;99.90;;;;;;3567325;40;20423;-66
2021/08/03 01:36:45;;;;;;;2.70;2.20;;;12.30;99.90;;;;;;3567346;40;20119;-65
2021/08/03 01:39:11;;;;;;;5.45;2.20;;;12.30;99.90;;;;;;3559664;40;20069;-66
2021/08/03 01:41:37;;;;;;;4.78;2.33;;;12.30;99.90;;;;;;3566744;40;20543;-66
2021/08/03 01:44:03;;;;;;;5.47;2.33;;;12.30;99.90;;;;;;3557236;40;20155;-66
2021/08/03 01:46:29;;;;;;;4.47;2.47;;;12.30;99.90;;;;;;3566882;40;20427;-67
2021/08/03 01:48:57;;;;;;;9.60;2.30;;;12.30;99.90;;;;;;3559306;40;20069;-65
2021/08/03 01:51:23;;;;;;;4.93;2.53;;;12.20;99.90;;;;;;3559948;40;20053;-65
2021/08/03 01:53:48;;;;;;;7.30;2.42;;;12.20;99.90;;;;;;3561089;40;20147;-65
2021/08/03 01:56:14;;;;;;;7.75;2.28;;;12.20;99.90;;;;;;3559833;40;20041;-66
2021/08/03 01:58:40;;;;;;;5.28;2.35;;;12.10;99.90;;;;;;3559873;40;20170;-66
2021/08/03 02:01:17;;;;;;;7.55;2.50;;;12.10;99.90;;;;;;3566588;40;20092;-65
2021/08/03 02:03:43;;;;;;;7.30;2.40;;;12.10;99.90;;;;;;3567430;40;20812;-66
2021/08/03 02:06:15;;;;;;;3.13;1.80;;;12.10;99.90;;;;;;3559684;40;20034;-66
2021/08/03 02:08:41;;;;;;;3.42;2.05;;;12.00;99.90;;;;;;3560051;40;20034;-66
2021/08/03 02:11:11;;;;;;;4.85;2.60;;;12.00;99.90;;;;;;3559464;40;20045;-66
2021/08/03 02:13:36;;;;;;;4.88;2.40;;;11.90;99.90;;;;;;3560280;40;20037;-66
2021/08/03 02:16:06;;;;;;;6.25;2.17;;;11.80;99.90;;;;;;3560249;40;20041;-66
2021/08/03 02:18:32;;;;;;;5.55;2.50;;;11.70;99.90;;;;;;3568857;40;20041;-66
2021/08/03 02:20:59;;;;;;;9.77;3.20;;;11.70;99.90;;;;;;3568875;40;20814;-66
2021/08/03 02:23:29;;;;;;;11.40;3.22;;;11.70;99.90;;;;;;3561635;40;20065;-66
2021/08/03 02:26:01;;;;;;;5.72;2.90;;;11.80;99.90;;;;;;3568215;40;20053;-66
2021/08/03 02:28:28;;;;;;;6.85;2.92;;;11.90;99.90;;;;;;3561541;40;20065;-66
2021/08/03 02:30:54;;;;;;;7.63;3.13;;;11.90;99.90;;;;;;3567396;40;20037;-66
2021/08/03 02:33:21;;;;;;;7.18;2.50;;;11.90;99.90;;;;;;3568479;40;20104;-66
2021/08/03 02:35:47;;;;;;;6.68;2.72;;;11.90;99.90;;;;;;3569125;40;20392;-66
2021/08/03 02:38:13;;;;;;;4.50;2.38;;;11.90;99.90;;;;;;3559065;40;20052;-66
2021/08/03 02:40:38;;;;;;;8.30;2.83;;;12.00;99.90;;;;;;3560399;40;20070;-66
2021/08/03 02:43:12;;;;;;;7.30;2.60;;;12.10;99.90;;;;;;3567569;40;20041;-66
2021/08/03 02:45:40;;;;;;;8.57;2.35;;;12.10;99.90;;;;;;3560161;40;20064;-66
2021/08/03 02:48:14;;;;;;;4.32;2.20;;;12.10;99.90;;;;;;3551573;40;20422;-66
2021/08/03 02:50:39;;;;;;;8.38;2.50;;;12.10;99.90;;;;;;3559929;40;20046;-67
2021/08/03 02:53:05;;;;;;;4.55;2.13;;;12.20;99.90;;;;;;3562334;40;20592;-66
2021/08/03 02:55:30;;;;;;;6.85;2.50;;;12.30;99.90;;;;;;3561681;40;20055;-67
2021/08/03 02:57:56;;;;;;;7.75;2.30;;;12.40;99.90;;;;;;3567349;40;20648;-66
2021/08/03 03:00:23;;;;;;;4.53;2.35;;;12.40;99.90;;;;;;3561820;40;20164;-66
2021/08/03 03:02:49;;;;;;;6.18;2.63;;;12.50;99.90;;;;;;3566807;40;20576;-66
2021/08/03 03:05:14;;;;;;;9.23;2.60;;;12.60;99.90;;;;;;3567344;40;20037;-66
2021/08/03 03:07:41;;;;;;;3.17;2.00;;;12.60;99.90;;;;;;3567756;40;20045;-66
2021/08/03 03:10:07;;;;;;;3.20;2.28;;;12.70;99.90;;;;;;3568131;40;20461;-68
2021/08/03 03:12:33;;;;;;;5.38;2.17;;;12.70;99.90;;;;;;3560493;40;20520;-68
2021/08/03 03:14:59;;;;;;;4.13;1.70;;;12.70;99.90;;;;;;3567784;40;20038;-68
2021/08/03 03:17:26;;;;;;;8.48;2.72;;;12.70;99.90;;;;;;3568716;40;20373;-67
2021/08/03 03:19:52;;;;;;;4.40;1.80;;;12.70;99.90;;;;;;3566731;40;20331;-67
2021/08/03 03:22:17;;;;;;;6.55;2.42;;;12.70;99.90;;;;;;3568583;40;20077;-67
2021/08/03 03:24:43;;;;;;;3.58;1.83;;;12.80;99.90;;;;;;3559887;40;20041;-67
2021/08/03 03:27:09;;;;;;;6.30;3.45;;;12.80;99.90;;;;;;3560403;40;20033;-67
2021/08/03 03:29:34;;;;;;;4.03;1.95;;;12.80;99.90;;;;;;3569227;40;20060;-67
2021/08/03 03:32:00;;;;;;;8.52;1.88;;;12.80;99.90;;;;;;3568431;40;20029;-67
2021/08/03 03:34:26;;;;;;;4.50;1.80;;;12.80;99.90;;;;;;3567858;40;20045;-68
2021/08/03 03:36:52;;;;;;;3.40;1.95;;;12.90;99.90;;;;;;3559502;40;20032;-67
2021/08/03 03:39:18;;;;;;;4.05;2.03;;;13.10;99.90;;;;;;3567270;40;20029;-68
2021/08/03 03:41:52;;;;;;;9.35;2.25;;;13.00;99.90;;;;;;3566827;40;20036;-67
2021/08/03 03:44:18;;;;;;;3.92;1.95;;;13.10;99.90;;;;;;3569528;40;20035;-68
2021/08/03 03:46:43;;;;;;;5.85;2.00;;;13.10;99.90;;;;;;3560501;40;20029;-67
2021/08/03 03:49:11;;;;;;;6.30;2.05;;;13.10;99.90;;;;;;3561613;40;20689;-67
2021/08/03 03:51:37;;;;;;;6.18;2.20;;;13.20;99.90;;;;;;3559387;40;20036;-67
2021/08/03 03:54:04;;;;;;;9.02;2.15;;;13.20;99.90;;;;;;3560830;40;20045;-67
2021/08/03 03:56:30;;;;;;;3.22;2.00;;;13.20;99.90;;;;;;3568206;40;20048;-67
2021/08/03 03:58:56;;;;;;;11.68;2.30;;;13.20;99.90;;;;;;3569032;40;20034;-68
2021/08/03 04:01:22;;;;;;;6.50;1.92;;;13.30;99.90;;;;;;3561557;40;20045;-67
2021/08/03 04:03:48;;;;;;;5.22;2.20;;;13.30;99.90;;;;;;3561215;40;20055;-67
2021/08/03 04:06:14;;;;;;;3.75;1.60;;;13.30;99.90;;;;;;3569039;40;20277;-67
2021/08/03 04:08:40;;;;;;;6.53;2.15;;;13.30;99.90;;;;;;3559884;40;20975;-67
2021/08/03 04:11:08;;;;;;;3.03;1.85;;;13.40;99.90;;;;;;3560311;40;20053;-67
2021/08/03 04:13:35;;;;;;;9.55;2.55;;;13.40;99.90;;;;;;3568132;40;20040;-67
2021/08/03 04:16:01;;;;;;;5.32;2.13;;;13.50;99.90;;;;;;3561262;40;20067;-68
2021/08/03 04:18:28;;;;;;;5.80;2.30;;;13.50;99.90;;;;;;3568370;40;20036;-67
2021/08/03 04:20:53;;;;;;;3.00;2.10;;;13.50;99.90;;;;;;3566974;40;20067;-67
2021/08/03 04:23:19;;;;;;;3.97;2.00;;;13.60;99.90;;;;;;3561572;40;20033;-67
2021/08/03 04:25:44;;;;;;;2.28;1.67;;;13.60;99.90;;;;;;3567579;40;20033;-67
2021/08/03 04:28:10;;;;;;;5.28;2.15;;;13.60;99.90;;;;;;3566914;40;20045;-66
2021/08/03 04:30:35;;;;;;;3.40;1.80;;;13.70;99.90;;;;;;3558210;40;20040;-67
2021/08/03 04:33:01;;;;;;;2.85;2.00;;;13.70;99.90;;;;;;3556837;40;20093;-67
2021/08/03 04:35:26;;;;;;;5.55;1.98;;;13.80;99.90;;;;;;3560294;40;20029;-66
2021/08/03 04:37:52;;;;;;;5.20;1.80;;;13.80;99.90;;;;;;3559541;40;20037;-67
2021/08/03 04:40:17;;;;;;;4.47;2.53;;;13.90;99.90;;;;;;3559759;40;20049;-67
2021/08/03 04:42:43;;;;;;;5.47;2.05;;;14.10;99.90;;;;;;3557933;40;20040;-67
2021/08/03 04:45:08;;;;;;;3.50;1.77;;;14.10;99.90;;;;;;3559695;40;20080;-67
2021/08/03 04:47:34;;;;;;;2.63;1.70;;;14.20;99.90;;;;;;3566942;40;20049;-67
2021/08/03 04:49:59;;;;;;;5.35;2.10;;;14.20;99.90;;;;;;3559798;40;20698;-67
2021/08/03 04:52:25;;;;;;;4.70;1.90;;;14.30;99.90;;;;;;3558707;40;20046;-67
2021/08/03 04:54:50;;;;;;;7.35;2.15;;;14.30;99.90;;;;;;3560457;40;20029;-67
2021/08/03 04:57:16;;;;;;;3.03;1.77;;;14.40;99.90;;;;;;3559813;40;20297;-67
2021/08/03 04:59:41;;;;;;;4.75;1.77;;;14.40;99.90;;;;;;3559121;40;20707;-66
2021/08/03 05:02:07;;;;;;;5.68;1.70;;;14.50;99.90;;;;;;3558795;40;20033;-67
2021/08/03 05:04:34;;;;;;;6.03;2.03;;;14.50;99.90;;;;;;3560144;40;20029;-67
2021/08/03 05:06:59;;;;;;;9.50;1.80;;;14.60;99.90;;;;;;3565643;40;20069;-67
2021/08/03 05:09:25;;;;;;;6.30;1.75;;;14.60;99.90;;;;;;3560249;40;20022;-67
2021/08/03 05:11:51;;;;;;;4.60;1.60;;;14.60;99.90;;;;;;3560458;40;20037;-67
2021/08/03 05:14:16;;;;;;;3.53;1.70;;;14.60;99.90;;;;;;3556842;40;20025;-67
2021/08/03 05:16:41;;;;;;;3.30;1.67;;;14.70;99.90;;;;;;3560537;40;20059;-67
2021/08/03 05:19:07;;;;;;;4.75;1.80;;;14.80;99.90;;;;;;3560540;40;20044;-67
2021/08/03 05:21:32;;;;;;;7.40;1.70;;;14.90;99.90;;;;;;3559474;40;20044;-68
2021/08/03 05:23:58;;;;;;;3.50;1.88;;;15.00;99.90;;;;;;3568197;40;20476;-66
2021/08/03 05:26:24;;;;;;;3.88;1.60;;;15.00;99.90;;;;;;3560832;40;20021;-67
2021/08/03 05:28:49;;;;;;;3.67;1.92;;;15.10;99.90;;;;;;3567560;40;20085;-67
2021/08/03 05:31:15;;;;;;;5.82;1.88;;;15.10;99.90;;;;;;3558891;40;20134;-68
2021/08/03 05:33:40;;;;;;;6.25;1.80;;;15.10;99.90;;;;;;3555821;40;20029;-67
2021/08/03 05:36:06;;;;;;;3.25;1.73;;;15.20;99.90;;;;;;3566457;40;20063;-67
2021/08/03 05:38:32;;;;;;;4.65;1.92;;;15.30;99.90;;;;;;3560053;40;20044;-67
2021/08/03 05:40:57;;;;;;;4.80;1.83;;;15.40;99.90;;;;;;3565487;40;20049;-67
2021/08/03 05:43:23;;;;;;;5.13;1.80;;;15.50;99.90;;;;;;3559265;40;20441;-67
2021/08/03 05:45:48;;;;;;;12.02;2.03;;;15.60;99.90;;;;;;3560142;40;20034;-67
2021/08/03 05:48:14;;;;;;;7.45;1.85;;;15.70;99.90;;;;;;3560229;40;20033;-67
2021/08/03 05:50:39;;;;;;;5.20;1.85;;;15.70;99.90;;;;;;3568013;40;20053;-67
2021/08/03 05:53:05;;;;;;;3.70;1.70;;;15.70;99.90;;;;;;3560806;40;20026;-67
2021/08/03 05:55:30;;;;;;;5.15;1.63;;;15.80;99.90;;;;;;3562006;40;20022;-67
2021/08/03 05:57:56;;;;;;;4.20;1.92;;;15.80;99.90;;;;;;3561798;40;20030;-67
2021/08/03 06:00:21;;;;;;;4.75;1.92;;;15.90;99.90;;;;;;3562027;40;20041;-67
2021/08/03 06:02:47;;;;;;;4.13;1.90;;;15.90;99.90;;;;;;3561672;40;20385;-67
2021/08/03 06:05:12;;;;;;;4.93;1.60;;;15.90;99.90;;;;;;3562240;40;20044;-67
2021/08/03 06:07:40;;;;;;;3.95;1.65;;;16.00;99.90;;;;;;3562061;40;20029;-66
2021/08/03 06:10:06;;;;;;;7.47;2.00;;;16.10;99.90;;;;;;3561674;40;20062;-67
2021/08/03 06:12:31;;;;;;;4.43;1.80;;;16.10;99.90;;;;;;3560727;40;20037;-66
2021/08/03 06:14:57;;;;;;;3.60;1.85;;;16.10;99.90;;;;;;3562005;40;20514;-67
2021/08/03 06:17:22;;;;;;;7.18;1.65;;;16.20;99.90;;;;;;3560092;40;20024;-67
2021/08/03 06:19:48;;;;;;;4.22;1.95;;;16.10;99.90;;;;;;3561695;40;20111;-67
2021/08/03 06:22:13;;;;;;;4.53;1.63;;;16.10;99.90;;;;;;3561512;40;20030;-67
2021/08/03 06:24:39;;;;;;;5.47;2.05;;;16.20;99.90;;;;;;3561898;40;20395;-67
2021/08/03 06:27:04;;;;;;;6.85;2.63;;;16.20;99.90;;;;;;3569527;40;20046;-67
2021/08/03 06:29:30;;;;;;;10.23;2.95;;;16.20;99.90;;;;;;3561965;40;20123;-66
2021/08/03 06:31:55;;;;;;;6.68;1.90;;;16.20;99.90;;;;;;3569243;40;20303;-67
2021/08/03 06:34:21;;;;;;;5.68;1.70;;;16.20;99.90;;;;;;3560010;40;20807;-67
2021/08/03 06:36:46;;;;;;;4.30;1.88;;;16.20;99.90;;;;;;3559032;40;20433;-67
2021/08/03 06:39:12;;;;;;;2.47;2.00;;;16.30;99.90;;;;;;3568156;40;20033;-67
2021/08/03 06:41:38;;;;;;;3.97;1.88;;;16.40;99.90;;;;;;3568623;40;20133;-67
2021/08/03 06:44:03;;;;;;;3.17;1.70;;;16.40;99.90;;;;;;3560659;40;20064;-67
2021/08/03 06:46:30;;;;;;;7.57;2.22;;;16.50;99.90;;;;;;3560130;40;20037;-66
2021/08/03 06:48:56;;;;;;;6.28;2.30;;;16.60;99.90;;;;;;3561954;40;20035;-67
2021/08/03 06:51:22;;;;;;;4.45;2.00;;;16.60;99.90;;;;;;3561151;40;20036;-66
2021/08/03 06:53:47;;;;;;;6.22;2.40;;;16.60;99.90;;;;;;3561724;40;20077;-67
2021/08/03 06:56:13;;;;;;;4.43;1.92;;;16.60;99.90;;;;;;3561551;40;20419;-67
2021/08/03 06:58:39;;;;;;;6.03;2.50;;;16.60;99.90;;;;;;3561376;40;20050;-68
2021/08/03 07:01:04;;;;;;;6.53;2.42;;;16.70;99.90;;;;;;3566130;40;20061;-66
2021/08/03 07:03:30;;;;;;;6.00;2.45;;;16.60;99.90;;;;;;3561393;40;20029;-67
2021/08/03 07:05:57;;;;;;;7.07;2.40;;;16.60;99.90;;;;;;3561081;40;20044;-67
2021/08/03 07:08:22;;;;;;;6.28;2.33;;;16.60;99.90;;;;;;3562294;40;20306;-67
2021/08/03 07:10:48;;;;;;;4.80;2.40;;;16.80;99.90;;;;;;3560526;40;20026;-67
2021/08/03 07:13:13;;;;;;;7.45;2.30;;;16.80;99.90;;;;;;3561197;40;20040;-67
2021/08/03 07:15:39;;;;;;;4.20;2.03;;;16.70;99.90;;;;;;3567791;40;20032;-68
2021/08/03 07:18:04;;;;;;;8.38;2.63;;;16.70;99.90;;;;;;3561294;40;20026;-67
2021/08/03 07:20:30;;;;;;;9.13;2.60;;;16.80;99.90;;;;;;3560686;40;20048;-68
2021/08/03 07:22:55;;;;;;;5.90;2.17;;;16.90;99.90;;;;;;3559847;40;20089;-67
2021/08/03 07:25:21;;;;;;;4.15;2.10;;;17.10;99.90;;;;;;3567877;40;20041;-67
2021/08/03 07:27:47;;;;;;;5.57;2.03;;;17.40;99.90;;;;;;3560811;40;20034;-68
2021/08/03 07:30:12;;;;;;;6.65;1.77;;;17.60;99.90;;;;;;3560922;40;20033;-67
2021/08/03 07:32:38;;;;;;;4.72;1.55;;;17.60;99.90;;;;;;3827540;23;20053;-66
2021/08/03 07:35:03;;;;;;;3.60;1.58;;;17.90;99.90;;;;;;3546438;40;20033;-66
2021/08/03 07:37:30;;;;;;;6.30;3.30;;;18.10;99.90;;;;;;3545255;40;20135;-66
2021/08/03 07:39:56;;;;;;;12.30;5.53;;;18.20;99.90;;;;;;3552788;40;20101;-66
2021/08/03 07:42:21;;;;;;;3.65;1.90;;;18.40;99.90;;;;;;3542244;40;20019;-66
2021/08/03 07:44:47;;;;;;;5.50;2.10;;;18.70;99.90;;;;;;3542181;40;20420;-66
2021/08/03 07:47:13;;;;;;;3.58;1.70;;;18.60;99.90;;;;;;3540860;40;20431;-65
2021/08/03 07:49:38;;;;;;;5.97;1.92;;;18.60;99.90;;;;;;3544233;40;20099;-66
2021/08/03 07:52:04;;;;;;;4.57;1.95;;;18.80;99.90;;;;;;3548450;40;20513;-66
2021/08/03 07:54:29;;;;;;;4.63;1.70;;;19.10;99.90;;;;;;3531914;40;20027;-66
2021/08/03 07:56:55;;;;;;;9.63;2.13;;;19.40;99.90;;;;;;3540169;40;20331;-67
2021/08/03 07:59:20;;;;;;;4.40;1.73;;;19.60;99.90;;;;;;3541243;40;20359;-66
2021/08/03 08:01:46;;;;;;;4.47;2.00;;;19.50;99.90;;;;;;3541332;40;20038;-66
2021/08/03 08:04:11;;;;;;;9.38;2.05;;;19.40;99.90;;;;;;3538093;40;20764;-66
2021/08/03 08:06:37;;;;;;;6.97;3.95;;;19.60;99.90;;;;;;3541129;40;20045;-66
2021/08/03 08:09:02;;;;;;;4.05;1.73;;;19.40;99.90;;;;;;3541513;40;20034;-66
2021/08/03 08:11:28;;;;;;;6.65;2.85;;;19.60;99.90;;;;;;3539013;40;20034;-66
2021/08/03 08:13:53;;;;;;;10.43;2.50;;;19.70;99.90;;;;;;3540872;40;20027;-66
2021/08/03 08:16:19;;;;;;;5.95;1.90;;;19.80;99.90;;;;;;3541442;40;20069;-66
2021/08/03 08:18:44;;;;;;;8.73;1.80;;;19.90;99.90;;;;;;3539742;40;20019;-66
2021/08/03 08:21:09;;;;;;;6.07;2.35;;;19.90;99.90;;;;;;3540649;40;20034;-66
2021/08/03 08:23:35;;;;;;;4.45;2.67;;;20.10;99.90;;;;;;3540957;40;20038;-66
2021/08/03 08:26:01;;;;;;;5.38;2.20;;;20.10;99.90;;;;;;3539640;40;20757;-66
2021/08/03 08:28:26;;;;;;;10.88;2.95;;;20.30;99.90;;;;;;3540539;40;20033;-66
2021/08/03 08:30:52;;;;;;;5.53;2.00;;;20.50;99.90;;;;;;3539972;40;20051;-66
2021/08/03 08:33:17;;;;;;;5.07;2.00;;;20.30;99.90;;;;;;3540718;40;20053;-66
2021/08/03 08:35:43;;;;;;;4.00;2.15;;;20.30;99.90;;;;;;3540811;40;20049;-66
2021/08/03 08:38:08;;;;;;;5.65;2.75;;;20.20;99.90;;;;;;3541838;40;20395;-66
2021/08/03 08:40:34;;;;;;;23.13;10.48;;;20.40;99.90;;;;;;3547276;40;20038;-66
2021/08/03 08:42:59;;;;;;;3.40;1.75;;;20.30;99.90;;;;;;3547356;40;20050;-66
2021/08/03 08:45:25;;;;;;;6.07;1.75;;;20.20;99.90;;;;;;3541028;40;20437;-69
2021/08/03 08:47:50;;;;;;;3.67;1.95;;;20.00;99.90;;;;;;3540117;40;20034;-69
2021/08/03 08:50:16;;;;;;;6.47;2.35;;;20.30;99.90;;;;;;3540229;40;20037;-69
2021/08/03 08:52:41;;;;;;;12.90;5.60;;;20.60;99.90;;;;;;3540948;40;20067;-70
2021/08/03 08:55:07;;;;;;;6.13;2.20;;;20.80;99.90;;;;;;3541604;40;20030;-69
2021/08/03 08:57:32;;;;;;;9.85;2.00;;;20.90;99.80;;;;;;3541616;40;20038;-69
2021/08/03 08:59:58;;;;;;;5.90;2.10;;;21.10;99.90;;;;;;3541348;40;20799;-70
2021/08/03 09:02:23;;;;;;;3.85;1.85;;;20.60;99.90;;;;;;3540578;40;20031;-72
2021/08/03 09:04:49;;;;;;;4.15;2.15;;;20.90;99.90;;;;;;3541848;40;20042;-73
2021/08/03 09:07:14;;;;;;;4.45;1.60;;;21.30;99.00;;;;;;3541725;40;20324;-73
2021/08/03 09:09:40;;;;;;;6.10;2.40;;;21.70;99.90;;;;;;3541688;40;20038;-72
2021/08/03 09:12:05;;;;;;;3.45;1.77;;;22.00;98.00;;;;;;3540453;40;20101;-73
2021/08/03 09:14:31;;;;;;;8.20;2.22;;;22.00;98.10;;;;;;3540693;40;20034;-74
2021/08/03 09:16:59;;;;;;;5.20;1.52;;;22.20;97.40;;;;;;3540372;40;20039;-71
2021/08/03 09:19:28;;;;;;;3.05;1.40;;;22.20;98.60;;;;;;3539681;40;20030;-73
2021/08/03 09:21:53;;;;;;;5.32;1.88;;;22.40;98.30;;;;;;3539461;40;20018;-72
2021/08/03 09:24:19;;;;;;;6.35;1.90;;;22.40;97.80;;;;;;3539326;40;20022;-73
2021/08/03 09:26:46;;;;;;;5.07;1.40;;;22.60;97.90;;;;;;3539953;40;20038;-73
2021/08/03 09:29:11;;;;;;;4.05;1.80;;;23.00;97.20;;;;;;3540041;40;21014;-72
2021/08/03 09:31:37;;;;;;;6.00;1.75;;;23.30;95.80;;;;;;3538746;40;20084;-74
2021/08/03 09:34:02;;;;;;;4.93;2.17;;;23.60;95.60;;;;;;3540025;40;20685;-73
2021/08/03 09:36:28;;;;;;;3.85;1.65;;;;;;;;;;3541618;40;20038;-67
2021/08/03 09:38:54;;;;;;;4.07;1.48;;;;;;;;;;3542283;40;20054;-67
2021/08/03 09:41:20;;;;;;;2.28;0.95;;;;;;;;;;3541335;40;20513;-67
2021/08/03 09:43:46;;;;;;;4.55;1.23;;;;;;;;;;3540482;40;20467;-67
2021/08/03 09:46:12;;;;;;;5.10;1.35;;;;;;;;;;3541684;40;20053;-65
2021/08/03 09:48:39;;;;;;;3.92;1.42;;;;;;;;;;3541104;40;20041;-67
2021/08/03 09:51:05;;;;;;;7.53;2.15;;;;;;;;;;3541412;40;20042;-67
2021/08/03 09:53:31;;;;;;;2.55;1.23;;;;;;;;;;3541328;40;20086;-66
2021/08/03 09:55:57;;;;;;;2.97;1.40;;;22.70;99.90;;;;;;3541637;40;20093;-67
2021/08/03 09:58:23;;;;;;;7.15;2.88;;;;;;;;;;3541585;40;20034;-67
2021/08/03 10:00:50;;;;;;;4.28;1.27;;;;;;;;;;3540766;40;20030;-68
2021/08/03 10:03:16;;;;;;;7.57;3.97;;;22.30;94.50;;;;;;3541113;40;20105;-68
2021/08/03 10:05:41;;;;;;;3.17;1.35;;;22.50;95.40;;;;;;3541489;40;20027;-68
2021/08/03 10:08:07;;;;;;;3.53;1.30;;;22.70;95.40;;;;;;3540688;40;20618;-68
2021/08/03 10:10:32;;;;;;;7.88;2.88;;;22.80;95.20;;;;;;3541110;40;20054;-68
2021/08/03 10:12:58;;;;;;;5.68;1.33;;;23.00;95.80;;;;;;3547993;40;20423;-68
2021/08/03 10:15:24;;;;;;;7.43;2.10;;;23.20;93.90;;;;;;3541753;40;20132;-68
2021/08/03 10:17:49;;;;;;;8.35;1.55;;;23.10;95.10;;;;;;3540684;40;20830;-67
2021/08/03 10:20:14;;;;;;;13.70;4.75;;;23.50;94.50;;;;;;3540948;40;20037;-67
2021/08/03 10:22:40;;;;;;;6.18;1.92;;;23.70;95.80;;;;;;3540975;40;20034;-68
2021/08/03 10:25:06;;;;;;;2.63;1.60;;;23.80;94.20;;;;;;3540666;40;20113;-67
2021/08/03 10:27:32;;;;;;;16.30;2.20;;;;;;;;;;3539996;40;20037;-67
2021/08/03 10:29:59;;;;;;;7.72;3.40;;;;;;;;;;3540999;40;20023;-68
2021/08/03 10:32:25;;;;;;;3.63;1.30;;;22.80;93.60;;;;;;3541166;40;20050;-69
2021/08/03 10:34:50;;;;;;;5.03;2.00;;;22.90;93.50;;;;;;3541556;40;20030;-68
2021/08/03 10:37:16;;;;;;;4.00;1.50;;;22.70;93.70;;;;;;3542634;40;20120;-68
2021/08/03 10:39:41;;;;;;;4.07;1.33;;;22.60;94.50;;;;;;3543326;40;20026;-68
2021/08/03 10:42:07;;;;;;;3.05;1.20;;;22.50;93.60;;;;;;3543216;40;20046;-68
2021/08/03 10:44:33;;;;;;;2.95;1.25;;;22.40;95.50;;;;;;3543833;40;20148;-68
2021/08/03 10:46:58;;;;;;;3.90;1.20;;;22.10;94.40;;;;;;3543738;40;20066;-68
2021/08/03 10:49:24;;;;;;;4.30;1.40;;;22.20;95.10;;;;;;3543593;40;20069;-68
2021/08/03 10:51:50;;;;;;;3.38;1.10;;;22.00;94.90;;;;;;3543781;40;20026;-68
2021/08/03 10:54:16;;;;;;;3.95;1.40;;;21.80;95.30;;;;;;3542987;40;20053;-68
2021/08/03 10:56:42;;;;;;;7.45;1.40;;;21.70;95.60;;;;;;3543274;40;20035;-68
2021/08/03 10:59:07;;;;;;;4.80;1.70;;;21.50;95.50;;;;;;3542933;40;20312;-68
2021/08/03 11:01:33;;;;;;;4.43;1.50;;;21.70;96.20;;;;;;3538906;40;20033;-68
2021/08/03 11:03:58;;;;;;;2.75;1.42;;;21.80;95.80;;;;;;3541200;40;20052;-68
2021/08/03 11:06:23;;;;;;;3.17;1.25;;;22.50;94.70;;;;;;3540981;40;20038;-68
2021/08/03 11:08:49;;;;;;;4.90;1.40;;;22.90;94.10;;;;;;3543069;40;20439;-68
2021/08/03 11:11:15;;;;;;;11.48;1.77;;;23.10;93.30;;;;;;3541923;40;20035;-68
2021/08/03 11:13:40;;;;;;;2.08;1.25;;;23.60;94.00;;;;;;3542517;40;20049;-67
2021/08/03 11:16:05;;;;;;;4.88;2.25;;;23.70;92.40;;;;;;3540617;40;20415;-68
2021/08/03 11:18:31;;;;;;;4.65;1.20;;;24.00;91.80;;;;;;3542136;40;20120;-72
2021/08/03 11:20:56;;;;;;;3.50;1.40;;;24.30;91.70;;;;;;3542677;40;20034;-72
2021/08/03 11:23:22;;;;;;;7.85;1.50;;;24.20;93.70;;;;;;3542681;40;20120;-67
2021/08/03 11:25:47;;;;;;;2.80;1.35;;;24.60;91.40;;;;;;3541843;40;20035;-68
2021/08/03 11:28:13;;;;;;;3.75;1.30;;;24.70;90.50;;;;;;3542744;40;20405;-67
2021/08/03 11:30:39;;;;;;;4.35;1.70;;;24.30;91.60;;;;;;3542003;40;20046;-68
2021/08/03 11:33:04;;;;;;;5.05;1.40;;;24.20;92.30;;;;;;3541385;40;20041;-67
2021/08/03 11:35:29;;;;;;;7.63;2.42;;;24.00;92.20;;;;;;3541662;40;20042;-67
2021/08/03 11:37:55;;;;;;;3.30;1.33;;;24.00;92.50;;;;;;3542519;40;20128;-67
2021/08/03 11:40:20;;;;;;;3.08;1.27;;;26.60;93.30;;;;;;3542158;40;20047;-67
2021/08/03 11:42:46;;;;;;;2.55;1.50;;;24.40;90.00;;;;;;3540867;40;20093;-67
2021/08/03 11:45:12;;;;;;;10.48;4.35;;;;;;;;;;3542339;40;20049;-68
2021/08/03 11:47:38;;;;;;;9.73;4.13;;;;;;;;;;3542290;40;20611;-66
2021/08/03 11:50:04;;;;;;;6.78;1.73;;;;;;;;;;3541837;40;20026;-66
2021/08/03 11:52:30;;;;;;;4.70;1.45;;;;;;;;;;3543311;40;20037;-66
2021/08/03 11:54:56;;;;;;;2.60;1.25;;;;;;;;;;3542021;40;20026;-66
2021/08/03 11:57:25;;;;;;;2.15;1.25;;;;;;;;;;3543290;40;20455;-65
2021/08/03 11:59:51;;;;;;;4.05;1.65;;;;;;;;;;3541326;40;20120;-66
2021/08/03 12:02:17;;;;;;;4.57;1.30;;;;;;;;;;3542360;40;20054;-66
2021/08/03 12:04:43;;;;;;;3.88;1.20;;;;;;;;;;3542913;40;20030;-65
2021/08/03 12:07:09;;;;;;;4.43;1.30;;;24.30;91.30;;;;;;3542546;40;20030;-66
2021/08/03 12:09:35;;;;;;;2.60;1.33;;;;;;;;;;3542162;40;20058;-66
2021/08/03 12:12:01;;;;;;;8.60;4.13;;;;;;;;;;3542797;40;20038;-66
2021/08/03 12:14:27;;;;;;;3.05;1.20;;;;;;;;;;3541847;40;20058;-66
2021/08/03 12:16:54;;;;;;;5.15;1.38;;;;;;;;;;3542405;40;20018;-66
2021/08/03 12:19:20;;;;;;;4.45;1.33;;;24.50;82.10;;;;;;3542314;40;20054;-66
2021/08/03 12:21:45;;;;;;;2.67;1.20;;;24.40;87.30;;;;;;3549625;40;20049;-66
2021/08/03 12:24:11;;;;;;;8.00;1.50;;;;;;;;;;3541500;40;20053;-66
2021/08/03 12:26:39;;;;;;;3.75;1.33;;;25.00;83.70;;;;;;3541453;40;20034;-66
2021/08/03 12:29:05;;;;;;;5.10;1.33;;;;;;;;;;3542551;40;20041;-66
2021/08/03 12:31:32;;;;;;;2.92;1.30;;;;;;;;;;3540898;40;20050;-66
2021/08/03 12:33:58;;;;;;;6.32;1.98;;;;;;;;;;3542460;40;20110;-66
2021/08/03 12:36:24;;;;;;;5.13;1.70;;;;;;;;;;3541810;40;20038;-66
2021/08/03 12:38:50;;;;;;;4.50;1.85;;;;;;;;;;3541500;40;20074;-66
2021/08/03 12:41:16;;;;;;;5.68;1.52;;;;;;;;;;3541682;40;20680;-66
2021/08/03 12:43:42;;;;;;;3.58;1.27;;;;;;;;;;3540407;40;20022;-66
2021/08/03 12:46:08;;;;;;;5.45;1.30;;;;;;;;;;3541916;40;20120;-69
2021/08/03 12:48:37;;;;;;;23.20;10.60;;;;;;;;;;3548641;40;20055;-66
2021/08/03 12:51:03;;;;;;;5.65;2.97;;;;;;;;;;3548491;40;20051;-66